Huadian, China
Current Conditions -  °F | °C
As of 1:00 AM on Tuesday 23 Dec 2014 (Local Time) from ZYCC Reporting Station
Scattered Clouds Scattered Clouds  
Wind Chill: -4°   Ceiling: Unl
Heat Index:   Visibility: 6mi
Dew Point:   Wind: 9mph
Humidity: 67%   Direction: 150°SSE
Pressure: 30.09"   Gusts: NA
Location:  42.97°N, 126.74°E
Report Text: ZYCC 221700Z 15004MPS 9999 SCT030 M13/M18 Q1019 NOSIG
Loading
Personal Weather Stations






























Interactive Weather Map New forecast layout! Learn more

10-Day Weather Forecast

Advertisements
Track Severe Weather on mobile